sensor_id;sensor_type;location;lat;lon;timestamp;temperature;humidity
28654;DHT22;24320;56.980;24.336;2024-02-21T00:01:08;0.70;99.90
28654;DHT22;24320;56.980;24.336;2024-02-21T00:03:35;0.70;99.90
28654;DHT22;24320;56.980;24.336;2024-02-21T00:06:02;0.70;99.90
28654;DHT22;24320;56.980;24.336;2024-02-21T00:08:29;0.70;99.90
28654;DHT22;24320;56.980;24.336;2024-02-21T00:10:57;0.70;99.90
28654;DHT22;24320;56.980;24.336;2024-02-21T00:13:24;0.60;99.90
28654;DHT22;24320;56.980;24.336;2024-02-21T00:15:51;0.60;99.90
28654;DHT22;24320;56.980;24.336;2024-02-21T00:18:18;0.60;99.90
28654;DHT22;24320;56.980;24.336;2024-02-21T00:20:45;0.60;99.90
28654;DHT22;24320;56.980;24.336;2024-02-21T00:23:12;0.60;99.90
28654;DHT22;24320;56.980;24.336;2024-02-21T00:25:39;0.60;99.90
28654;DHT22;24320;56.980;24.336;2024-02-21T00:28:06;0.60;99.90
28654;DHT22;24320;56.980;24.336;2024-02-21T00:30:33;0.50;99.90
28654;DHT22;24320;56.980;24.336;2024-02-21T00:33:00;0.50;99.90
28654;DHT22;24320;56.980;24.336;2024-02-21T00:35:27;0.50;99.90
28654;DHT22;24320;56.980;24.336;2024-02-21T00:37:54;0.50;99.90
28654;DHT22;24320;56.980;24.336;2024-02-21T00:40:21;0.50;99.90
28654;DHT22;24320;56.980;24.336;2024-02-21T00:42:49;0.50;99.90
28654;DHT22;24320;56.980;24.336;2024-02-21T00:45:16;0.50;99.90
28654;DHT22;24320;56.980;24.336;2024-02-21T00:47:43;0.50;99.90
28654;DHT22;24320;56.980;24.336;2024-02-21T00:50:10;0.40;99.90
28654;DHT22;24320;56.980;24.336;2024-02-21T00:52:37;0.50;99.90
28654;DHT22;24320;56.980;24.336;2024-02-21T00:55:05;0.50;99.90
28654;DHT22;24320;56.980;24.336;2024-02-21T00:57:32;0.50;99.90
28654;DHT22;24320;56.980;24.336;2024-02-21T00:59:59;0.40;99.90
28654;DHT22;24320;56.980;24.336;2024-02-21T01:02:26;0.40;99.90
28654;DHT22;24320;56.980;24.336;2024-02-21T01:04:53;0.40;99.90
28654;DHT22;24320;56.980;24.336;2024-02-21T01:07:20;0.30;99.90
28654;DHT22;24320;56.980;24.336;2024-02-21T01:09:47;0.40;99.90
28654;DHT22;24320;56.980;24.336;2024-02-21T01:12:14;0.40;99.90
28654;DHT22;24320;56.980;24.336;2024-02-21T01:14:41;0.40;99.90
28654;DHT22;24320;56.980;24.336;2024-02-21T01:17:08;0.40;99.90
28654;DHT22;24320;56.980;24.336;2024-02-21T01:19:35;0.40;99.90
28654;DHT22;24320;56.980;24.336;2024-02-21T01:22:02;0.40;99.90
28654;DHT22;24320;56.980;24.336;2024-02-21T01:24:29;0.40;99.90
28654;DHT22;24320;56.980;24.336;2024-02-21T01:26:56;0.50;99.90
28654;DHT22;24320;56.980;24.336;2024-02-21T01:29:23;0.40;99.90
28654;DHT22;24320;56.980;24.336;2024-02-21T01:31:50;0.40;99.90
28654;DHT22;24320;56.980;24.336;2024-02-21T01:34:17;0.40;99.90
28654;DHT22;24320;56.980;24.336;2024-02-21T01:37:07;0.40;99.90
28654;DHT22;24320;56.980;24.336;2024-02-21T01:39:34;0.30;99.90
28654;DHT22;24320;56.980;24.336;2024-02-21T01:42:01;0.40;99.90
28654;DHT22;24320;56.980;24.336;2024-02-21T01:44:28;0.30;99.90
28654;DHT22;24320;56.980;24.336;2024-02-21T01:46:55;0.40;99.90
28654;DHT22;24320;56.980;24.336;2024-02-21T01:49:22;0.40;99.90
28654;DHT22;24320;56.980;24.336;2024-02-21T01:51:50;0.40;99.90
28654;DHT22;24320;56.980;24.336;2024-02-21T01:54:18;0.40;99.90
28654;DHT22;24320;56.980;24.336;2024-02-21T01:56:46;0.40;99.90
28654;DHT22;24320;56.980;24.336;2024-02-21T01:59:15;0.30;99.90
28654;DHT22;24320;56.980;24.336;2024-02-21T02:01:42;0.30;99.90
28654;DHT22;24320;56.980;24.336;2024-02-21T02:04:09;0.30;99.90
28654;DHT22;24320;56.980;24.336;2024-02-21T02:06:36;0.30;99.90
28654;DHT22;24320;56.980;24.336;2024-02-21T02:09:03;0.50;99.90
28654;DHT22;24320;56.980;24.336;2024-02-21T02:11:32;0.40;99.90
28654;DHT22;24320;56.980;24.336;2024-02-21T02:13:59;0.40;99.90
28654;DHT22;24320;56.980;24.336;2024-02-21T02:16:26;0.40;99.90
28654;DHT22;24320;56.980;24.336;2024-02-21T02:18:53;0.40;99.90
28654;DHT22;24320;56.980;24.336;2024-02-21T02:21:29;0.50;99.90
28654;DHT22;24320;56.980;24.336;2024-02-21T02:23:57;0.50;99.90
28654;DHT22;24320;56.980;24.336;2024-02-21T02:26:24;0.50;99.90
28654;DHT22;24320;56.980;24.336;2024-02-21T02:28:51;0.50;99.90
28654;DHT22;24320;56.980;24.336;2024-02-21T02:31:18;0.50;99.90
28654;DHT22;24320;56.980;24.336;2024-02-21T02:33:45;0.50;99.90
28654;DHT22;24320;56.980;24.336;2024-02-21T02:36:13;0.50;99.90
28654;DHT22;24320;56.980;24.336;2024-02-21T02:38:40;0.50;99.90
28654;DHT22;24320;56.980;24.336;2024-02-21T02:41:07;0.50;99.90
28654;DHT22;24320;56.980;24.336;2024-02-21T02:43:33;0.50;99.90
28654;DHT22;24320;56.980;24.336;2024-02-21T02:46:01;0.50;99.90
28654;DHT22;24320;56.980;24.336;2024-02-21T02:48:28;0.50;99.90
28654;DHT22;24320;56.980;24.336;2024-02-21T02:50:55;0.50;99.90
28654;DHT22;24320;56.980;24.336;2024-02-21T02:53:22;0.50;99.90
28654;DHT22;24320;56.980;24.336;2024-02-21T02:55:49;0.60;99.90
28654;DHT22;24320;56.980;24.336;2024-02-21T02:58:16;0.40;99.90
28654;DHT22;24320;56.980;24.336;2024-02-21T03:00:43;0.40;99.90
28654;DHT22;24320;56.980;24.336;2024-02-21T03:03:10;0.30;99.90
28654;DHT22;24320;56.980;24.336;2024-02-21T03:05:36;0.40;99.90
28654;DHT22;24320;56.980;24.336;2024-02-21T03:08:04;0.40;99.90
28654;DHT22;24320;56.980;24.336;2024-02-21T03:10:34;0.40;99.90
28654;DHT22;24320;56.980;24.336;2024-02-21T03:13:01;0.40;99.90
28654;DHT22;24320;56.980;24.336;2024-02-21T03:15:28;0.40;99.90
28654;DHT22;24320;56.980;24.336;2024-02-21T03:17:55;0.40;99.90
28654;DHT22;24320;56.980;24.336;2024-02-21T03:20:22;0.40;99.90
28654;DHT22;24320;56.980;24.336;2024-02-21T03:22:49;0.40;99.90
28654;DHT22;24320;56.980;24.336;2024-02-21T03:25:16;0.30;99.90
28654;DHT22;24320;56.980;24.336;2024-02-21T03:27:43;0.40;99.90
28654;DHT22;24320;56.980;24.336;2024-02-21T03:30:10;0.30;99.90
28654;DHT22;24320;56.980;24.336;2024-02-21T03:32:37;0.30;99.90
28654;DHT22;24320;56.980;24.336;2024-02-21T03:35:06;0.40;99.90
28654;DHT22;24320;56.980;24.336;2024-02-21T03:37:33;0.40;99.90
28654;DHT22;24320;56.980;24.336;2024-02-21T03:40:00;0.30;99.90
28654;DHT22;24320;56.980;24.336;2024-02-21T03:42:27;0.30;99.90
28654;DHT22;24320;56.980;24.336;2024-02-21T03:44:56;0.30;99.90
28654;DHT22;24320;56.980;24.336;2024-02-21T03:47:23;0.30;99.90
28654;DHT22;24320;56.980;24.336;2024-02-21T03:49:50;0.30;99.90
28654;DHT22;24320;56.980;24.336;2024-02-21T03:52:18;0.30;99.90
28654;DHT22;24320;56.980;24.336;2024-02-21T03:54:45;0.30;99.90
28654;DHT22;24320;56.980;24.336;2024-02-21T03:57:12;0.30;99.90
28654;DHT22;24320;56.980;24.336;2024-02-21T03:59:39;0.30;99.90
28654;DHT22;24320;56.980;24.336;2024-02-21T04:02:10;0.30;99.90
28654;DHT22;24320;56.980;24.336;2024-02-21T04:04:37;0.30;99.90
28654;DHT22;24320;56.980;24.336;2024-02-21T04:07:04;0.30;99.90
28654;DHT22;24320;56.980;24.336;2024-02-21T04:09:35;0.30;99.90
28654;DHT22;24320;56.980;24.336;2024-02-21T04:12:02;0.30;99.90
28654;DHT22;24320;56.980;24.336;2024-02-21T04:14:29;0.30;99.90
28654;DHT22;24320;56.980;24.336;2024-02-21T04:16:57;0.30;99.90
28654;DHT22;24320;56.980;24.336;2024-02-21T04:19:24;0.30;99.90
28654;DHT22;24320;56.980;24.336;2024-02-21T04:21:51;0.30;99.90
28654;DHT22;24320;56.980;24.336;2024-02-21T04:24:18;0.20;99.90
28654;DHT22;24320;56.980;24.336;2024-02-21T04:26:45;0.20;99.90
28654;DHT22;24320;56.980;24.336;2024-02-21T04:29:12;0.30;99.90
28654;DHT22;24320;56.980;24.336;2024-02-21T04:31:39;0.30;99.90
28654;DHT22;24320;56.980;24.336;2024-02-21T04:34:06;0.30;99.90
28654;DHT22;24320;56.980;24.336;2024-02-21T04:36:33;0.30;99.90
28654;DHT22;24320;56.980;24.336;2024-02-21T04:39:00;0.30;99.90
28654;DHT22;24320;56.980;24.336;2024-02-21T04:41:27;0.30;99.90
28654;DHT22;24320;56.980;24.336;2024-02-21T04:43:54;0.40;99.90
28654;DHT22;24320;56.980;24.336;2024-02-21T04:46:21;0.30;99.90
28654;DHT22;24320;56.980;24.336;2024-02-21T04:48:48;0.30;99.90
28654;DHT22;24320;56.980;24.336;2024-02-21T04:51:15;0.30;99.90
28654;DHT22;24320;56.980;24.336;2024-02-21T04:53:42;0.30;99.90
28654;DHT22;24320;56.980;24.336;2024-02-21T04:56:09;0.20;99.90
28654;DHT22;24320;56.980;24.336;2024-02-21T04:58:39;0.30;99.90
28654;DHT22;24320;56.980;24.336;2024-02-21T05:01:07;0.30;99.90
28654;DHT22;24320;56.980;24.336;2024-02-21T05:03:34;0.30;99.90
28654;DHT22;24320;56.980;24.336;2024-02-21T05:06:02;0.30;99.90
28654;DHT22;24320;56.980;24.336;2024-02-21T05:08:30;0.40;99.90
28654;DHT22;24320;56.980;24.336;2024-02-21T05:10:57;0.40;99.90
28654;DHT22;24320;56.980;24.336;2024-02-21T05:13:24;0.40;99.90
28654;DHT22;24320;56.980;24.336;2024-02-21T05:15:52;0.40;99.90
28654;DHT22;24320;56.980;24.336;2024-02-21T05:18:19;0.40;99.90
28654;DHT22;24320;56.980;24.336;2024-02-21T05:20:47;0.40;99.90
28654;DHT22;24320;56.980;24.336;2024-02-21T05:23:14;0.40;99.90
28654;DHT22;24320;56.980;24.336;2024-02-21T05:25:41;0.40;99.90
28654;DHT22;24320;56.980;24.336;2024-02-21T05:28:08;0.40;99.90
28654;DHT22;24320;56.980;24.336;2024-02-21T05:30:35;0.40;99.90
28654;DHT22;24320;56.980;24.336;2024-02-21T05:33:07;0.40;99.90
28654;DHT22;24320;56.980;24.336;2024-02-21T05:35:36;0.40;99.90
28654;DHT22;24320;56.980;24.336;2024-02-21T05:38:03;0.40;99.90
28654;DHT22;24320;56.980;24.336;2024-02-21T05:40:34;0.40;99.90
28654;DHT22;24320;56.980;24.336;2024-02-21T05:43:01;0.40;99.90
28654;DHT22;24320;56.980;24.336;2024-02-21T05:45:28;0.30;99.90
28654;DHT22;24320;56.980;24.336;2024-02-21T05:47:55;0.30;99.90
28654;DHT22;24320;56.980;24.336;2024-02-21T05:50:24;0.40;99.90
28654;DHT22;24320;56.980;24.336;2024-02-21T05:52:51;0.40;99.90
28654;DHT22;24320;56.980;24.336;2024-02-21T05:55:19;0.40;99.90
28654;DHT22;24320;56.980;24.336;2024-02-21T05:57:46;0.40;99.90
28654;DHT22;24320;56.980;24.336;2024-02-21T06:00:14;0.40;99.90
28654;DHT22;24320;56.980;24.336;2024-02-21T06:02:42;0.40;99.90
28654;DHT22;24320;56.980;24.336;2024-02-21T06:05:09;0.50;99.90
28654;DHT22;24320;56.980;24.336;2024-02-21T06:07:36;0.60;99.90
28654;DHT22;24320;56.980;24.336;2024-02-21T06:10:03;0.60;99.90
28654;DHT22;24320;56.980;24.336;2024-02-21T06:12:30;0.60;99.90
28654;DHT22;24320;56.980;24.336;2024-02-21T06:14:57;0.60;99.90
28654;DHT22;24320;56.980;24.336;2024-02-21T06:17:24;0.60;99.90
28654;DHT22;24320;56.980;24.336;2024-02-21T06:19:51;0.60;99.90
28654;DHT22;24320;56.980;24.336;2024-02-21T06:22:18;0.60;99.90
28654;DHT22;24320;56.980;24.336;2024-02-21T06:24:45;0.60;99.90
28654;DHT22;24320;56.980;24.336;2024-02-21T06:27:12;0.60;99.90
28654;DHT22;24320;56.980;24.336;2024-02-21T06:29:41;0.60;99.90
28654;DHT22;24320;56.980;24.336;2024-02-21T06:32:08;0.60;99.90
28654;DHT22;24320;56.980;24.336;2024-02-21T06:34:35;0.60;99.90
28654;DHT22;24320;56.980;24.336;2024-02-21T06:37:02;0.60;99.90
28654;DHT22;24320;56.980;24.336;2024-02-21T06:39:29;0.70;99.90
28654;DHT22;24320;56.980;24.336;2024-02-21T06:41:56;0.70;99.90
28654;DHT22;24320;56.980;24.336;2024-02-21T06:44:29;0.60;99.90
28654;DHT22;24320;56.980;24.336;2024-02-21T06:46:56;0.70;99.90
28654;DHT22;24320;56.980;24.336;2024-02-21T06:49:23;0.70;99.90
28654;DHT22;24320;56.980;24.336;2024-02-21T06:51:50;0.70;99.90
28654;DHT22;24320;56.980;24.336;2024-02-21T06:54:17;0.70;99.90
28654;DHT22;24320;56.980;24.336;2024-02-21T06:56:44;0.80;99.90
28654;DHT22;24320;56.980;24.336;2024-02-21T06:59:11;0.80;99.90
28654;DHT22;24320;56.980;24.336;2024-02-21T07:01:49;0.90;99.90
28654;DHT22;24320;56.980;24.336;2024-02-21T07:04:16;0.80;99.90
28654;DHT22;24320;56.980;24.336;2024-02-21T07:06:45;0.90;99.90
28654;DHT22;24320;56.980;24.336;2024-02-21T07:09:12;0.90;99.90
28654;DHT22;24320;56.980;24.336;2024-02-21T07:11:39;0.90;99.90
28654;DHT22;24320;56.980;24.336;2024-02-21T07:14:06;0.90;99.90
28654;DHT22;24320;56.980;24.336;2024-02-21T07:16:33;0.90;99.90
28654;DHT22;24320;56.980;24.336;2024-02-21T07:19:00;1.00;99.90
28654;DHT22;24320;56.980;24.336;2024-02-21T07:21:27;1.00;99.90
28654;DHT22;24320;56.980;24.336;2024-02-21T07:23:54;1.10;99.90
28654;DHT22;24320;56.980;24.336;2024-02-21T07:26:21;1.10;99.90
28654;DHT22;24320;56.980;24.336;2024-02-21T07:28:49;1.20;99.90
28654;DHT22;24320;56.980;24.336;2024-02-21T07:31:16;1.20;99.90
28654;DHT22;24320;56.980;24.336;2024-02-21T07:33:43;1.20;99.90
28654;DHT22;24320;56.980;24.336;2024-02-21T07:36:10;1.20;99.90
28654;DHT22;24320;56.980;24.336;2024-02-21T07:38:38;1.20;99.90
28654;DHT22;24320;56.980;24.336;2024-02-21T07:41:05;1.20;99.90
28654;DHT22;24320;56.980;24.336;2024-02-21T07:43:32;1.30;99.90
28654;DHT22;24320;56.980;24.336;2024-02-21T07:45:59;1.40;99.90
28654;DHT22;24320;56.980;24.336;2024-02-21T07:48:26;1.40;99.90
28654;DHT22;24320;56.980;24.336;2024-02-21T07:50:53;1.50;99.90
28654;DHT22;24320;56.980;24.336;2024-02-21T07:53:21;1.60;99.90
28654;DHT22;24320;56.980;24.336;2024-02-21T07:55:48;1.60;99.90
28654;DHT22;24320;56.980;24.336;2024-02-21T07:58:15;1.70;99.90
28654;DHT22;24320;56.980;24.336;2024-02-21T08:00:42;1.70;99.90
28654;DHT22;24320;56.980;24.336;2024-02-21T08:03:09;1.80;99.90
28654;DHT22;24320;56.980;24.336;2024-02-21T08:05:36;1.90;99.90
28654;DHT22;24320;56.980;24.336;2024-02-21T08:08:04;1.90;99.90
28654;DHT22;24320;56.980;24.336;2024-02-21T08:10:31;1.90;99.90
28654;DHT22;24320;56.980;24.336;2024-02-21T08:12:58;1.90;99.90
28654;DHT22;24320;56.980;24.336;2024-02-21T08:15:25;1.90;99.90
28654;DHT22;24320;56.980;24.336;2024-02-21T08:17:56;2.00;99.90
28654;DHT22;24320;56.980;24.336;2024-02-21T08:20:27;2.00;99.90
28654;DHT22;24320;56.980;24.336;2024-02-21T08:22:54;2.20;99.90
28654;DHT22;24320;56.980;24.336;2024-02-21T08:25:21;2.10;99.90
28654;DHT22;24320;56.980;24.336;2024-02-21T08:27:48;2.20;99.90
28654;DHT22;24320;56.980;24.336;2024-02-21T08:30:16;2.20;99.90
28654;DHT22;24320;56.980;24.336;2024-02-21T08:32:43;2.20;99.90
28654;DHT22;24320;56.980;24.336;2024-02-21T08:35:10;2.30;99.90
28654;DHT22;24320;56.980;24.336;2024-02-21T08:37:37;2.20;99.90
28654;DHT22;24320;56.980;24.336;2024-02-21T08:40:04;2.30;99.90
28654;DHT22;24320;56.980;24.336;2024-02-21T08:42:36;2.30;99.90
28654;DHT22;24320;56.980;24.336;2024-02-21T08:45:03;2.40;99.90
28654;DHT22;24320;56.980;24.336;2024-02-21T08:47:31;2.50;99.90
28654;DHT22;24320;56.980;24.336;2024-02-21T08:49:58;2.50;99.90
28654;DHT22;24320;56.980;24.336;2024-02-21T08:52:30;2.60;99.90
28654;DHT22;24320;56.980;24.336;2024-02-21T08:54:57;2.80;99.90
28654;DHT22;24320;56.980;24.336;2024-02-21T08:57:24;2.80;99.90
28654;DHT22;24320;56.980;24.336;2024-02-21T08:59:51;2.90;99.90
28654;DHT22;24320;56.980;24.336;2024-02-21T09:02:18;3.00;99.90
28654;DHT22;24320;56.980;24.336;2024-02-21T09:04:45;3.00;99.90
28654;DHT22;24320;56.980;24.336;2024-02-21T09:07:12;3.10;99.90
28654;DHT22;24320;56.980;24.336;2024-02-21T09:09:39;3.00;99.90
28654;DHT22;24320;56.980;24.336;2024-02-21T09:12:07;3.10;99.90
28654;DHT22;24320;56.980;24.336;2024-02-21T09:14:37;3.20;99.90
28654;DHT22;24320;56.980;24.336;2024-02-21T09:17:07;3.20;99.90
28654;DHT22;24320;56.980;24.336;2024-02-21T09:19:35;3.30;99.90
28654;DHT22;24320;56.980;24.336;2024-02-21T09:22:03;3.40;99.90
28654;DHT22;24320;56.980;24.336;2024-02-21T09:24:30;3.50;99.90
28654;DHT22;24320;56.980;24.336;2024-02-21T09:26:57;3.50;99.90
28654;DHT22;24320;56.980;24.336;2024-02-21T09:29:25;3.50;99.90
28654;DHT22;24320;56.980;24.336;2024-02-21T09:31:53;3.50;99.90
28654;DHT22;24320;56.980;24.336;2024-02-21T09:34:21;3.40;99.90
28654;DHT22;24320;56.980;24.336;2024-02-21T09:36:48;3.50;99.90
28654;DHT22;24320;56.980;24.336;2024-02-21T09:39:15;3.50;99.90
28654;DHT22;24320;56.980;24.336;2024-02-21T09:41:50;3.50;99.90
28654;DHT22;24320;56.980;24.336;2024-02-21T09:44:22;3.40;99.90
28654;DHT22;24320;56.980;24.336;2024-02-21T09:47:02;3.30;99.90
28654;DHT22;24320;56.980;24.336;2024-02-21T09:49:33;3.20;99.90
28654;DHT22;24320;56.980;24.336;2024-02-21T09:52:02;3.10;99.90
28654;DHT22;24320;56.980;24.336;2024-02-21T09:54:30;3.00;99.90
28654;DHT22;24320;56.980;24.336;2024-02-21T09:57:00;2.90;99.90
28654;DHT22;24320;56.980;24.336;2024-02-21T09:59:28;2.90;99.90
28654;DHT22;24320;56.980;24.336;2024-02-21T10:01:56;2.80;99.90
28654;DHT22;24320;56.980;24.336;2024-02-21T10:04:23;2.70;99.90
28654;DHT22;24320;56.980;24.336;2024-02-21T10:06:51;2.70;99.90
28654;DHT22;24320;56.980;24.336;2024-02-21T10:09:25;2.60;99.90
28654;DHT22;24320;56.980;24.336;2024-02-21T10:11:56;2.50;99.90
28654;DHT22;24320;56.980;24.336;2024-02-21T10:14:34;2.50;99.90
28654;DHT22;24320;56.980;24.336;2024-02-21T10:17:01;2.50;99.90
28654;DHT22;24320;56.980;24.336;2024-02-21T10:19:29;2.50;99.90
28654;DHT22;24320;56.980;24.336;2024-02-21T10:22:05;2.60;99.90
28654;DHT22;24320;56.980;24.336;2024-02-21T10:24:32;2.60;99.90
28654;DHT22;24320;56.980;24.336;2024-02-21T10:29:27;2.80;99.90
28654;DHT22;24320;56.980;24.336;2024-02-21T10:32:13;2.90;99.90
28654;DHT22;24320;56.980;24.336;2024-02-21T10:34:41;2.90;99.90
28654;DHT22;24320;56.980;24.336;2024-02-21T10:37:11;3.00;99.90
28654;DHT22;24320;56.980;24.336;2024-02-21T10:39:39;3.00;99.90
28654;DHT22;24320;56.980;24.336;2024-02-21T10:42:07;3.00;99.90
28654;DHT22;24320;56.980;24.336;2024-02-21T10:44:38;3.10;99.90
28654;DHT22;24320;56.980;24.336;2024-02-21T10:47:10;3.10;99.90
28654;DHT22;24320;56.980;24.336;2024-02-21T10:49:40;3.10;99.90
28654;DHT22;24320;56.980;24.336;2024-02-21T10:54:58;3.10;99.90
28654;DHT22;24320;56.980;24.336;2024-02-21T10:57:28;3.20;99.90
28654;DHT22;24320;56.980;24.336;2024-02-21T10:59:56;3.20;99.90
28654;DHT22;24320;56.980;24.336;2024-02-21T11:02:26;3.20;99.90
28654;DHT22;24320;56.980;24.336;2024-02-21T11:04:57;3.30;99.90
28654;DHT22;24320;56.980;24.336;2024-02-21T11:07:24;3.20;99.90
28654;DHT22;24320;56.980;24.336;2024-02-21T11:09:52;3.20;99.90
28654;DHT22;24320;56.980;24.336;2024-02-21T11:12:22;3.30;99.90
28654;DHT22;24320;56.980;24.336;2024-02-21T11:14:50;3.30;99.90
28654;DHT22;24320;56.980;24.336;2024-02-21T11:17:20;3.30;99.90
28654;DHT22;24320;56.980;24.336;2024-02-21T11:19:54;3.20;99.90
28654;DHT22;24320;56.980;24.336;2024-02-21T11:22:21;3.20;99.90
28654;DHT22;24320;56.980;24.336;2024-02-21T11:24:51;3.30;99.90
28654;DHT22;24320;56.980;24.336;2024-02-21T11:27:21;3.20;99.90
28654;DHT22;24320;56.980;24.336;2024-02-21T11:29:58;3.10;99.90
28654;DHT22;24320;56.980;24.336;2024-02-21T11:32:26;3.10;99.90
28654;DHT22;24320;56.980;24.336;2024-02-21T11:34:57;3.10;99.90
28654;DHT22;24320;56.980;24.336;2024-02-21T11:37:33;3.10;99.90
28654;DHT22;24320;56.980;24.336;2024-02-21T11:40:01;3.20;99.90
28654;DHT22;24320;56.980;24.336;2024-02-21T11:42:30;3.30;99.90
28654;DHT22;24320;56.980;24.336;2024-02-21T11:44:57;3.30;99.90
28654;DHT22;24320;56.980;24.336;2024-02-21T11:47:25;3.40;99.90
28654;DHT22;24320;56.980;24.336;2024-02-21T11:49:52;3.50;99.90
28654;DHT22;24320;56.980;24.336;2024-02-21T11:52:24;3.50;99.90
28654;DHT22;24320;56.980;24.336;2024-02-21T11:54:55;3.40;99.90
28654;DHT22;24320;56.980;24.336;2024-02-21T11:57:31;3.40;99.90
28654;DHT22;24320;56.980;24.336;2024-02-21T11:59:58;3.30;99.90
28654;DHT22;24320;56.980;24.336;2024-02-21T12:02:28;3.30;99.90
28654;DHT22;24320;56.980;24.336;2024-02-21T12:04:56;3.30;99.90
28654;DHT22;24320;56.980;24.336;2024-02-21T12:07:23;3.30;99.90
28654;DHT22;24320;56.980;24.336;2024-02-21T12:09:51;3.30;99.90
28654;DHT22;24320;56.980;24.336;2024-02-21T12:12:20;3.30;99.90
28654;DHT22;24320;56.980;24.336;2024-02-21T12:14:57;3.30;99.90
28654;DHT22;24320;56.980;24.336;2024-02-21T12:17:27;3.30;99.90
28654;DHT22;24320;56.980;24.336;2024-02-21T12:19:54;3.30;99.90
28654;DHT22;24320;56.980;24.336;2024-02-21T12:22:21;3.40;99.90
28654;DHT22;24320;56.980;24.336;2024-02-21T12:24:48;3.40;99.90
28654;DHT22;24320;56.980;24.336;2024-02-21T12:27:15;3.40;99.90
28654;DHT22;24320;56.980;24.336;2024-02-21T12:29:42;3.40;99.90
28654;DHT22;24320;56.980;24.336;2024-02-21T12:32:11;3.40;99.90
28654;DHT22;24320;56.980;24.336;2024-02-21T12:34:38;3.50;99.90
28654;DHT22;24320;56.980;24.336;2024-02-21T12:37:19;3.50;99.90
28654;DHT22;24320;56.980;24.336;2024-02-21T12:39:48;3.40;99.90
28654;DHT22;24320;56.980;24.336;2024-02-21T12:42:16;3.40;99.90
28654;DHT22;24320;56.980;24.336;2024-02-21T12:44:44;3.40;99.90
28654;DHT22;24320;56.980;24.336;2024-02-21T12:47:11;3.30;99.90
28654;DHT22;24320;56.980;24.336;2024-02-21T12:49:38;3.30;99.90
28654;DHT22;24320;56.980;24.336;2024-02-21T12:52:11;3.30;99.90
28654;DHT22;24320;56.980;24.336;2024-02-21T12:54:38;3.30;99.90
28654;DHT22;24320;56.980;24.336;2024-02-21T12:57:05;3.30;99.90
28654;DHT22;24320;56.980;24.336;2024-02-21T12:59:32;3.30;99.90
28654;DHT22;24320;56.980;24.336;2024-02-21T13:01:59;3.20;99.90
28654;DHT22;24320;56.980;24.336;2024-02-21T13:04:26;3.20;99.90
28654;DHT22;24320;56.980;24.336;2024-02-21T13:06:54;3.20;99.90
28654;DHT22;24320;56.980;24.336;2024-02-21T13:09:22;3.10;99.90
28654;DHT22;24320;56.980;24.336;2024-02-21T13:11:49;3.00;99.90
28654;DHT22;24320;56.980;24.336;2024-02-21T13:14:19;2.90;99.90
28654;DHT22;24320;56.980;24.336;2024-02-21T13:16:46;2.90;99.90
28654;DHT22;24320;56.980;24.336;2024-02-21T13:19:15;2.90;99.90
28654;DHT22;24320;56.980;24.336;2024-02-21T13:21:45;2.80;99.90
28654;DHT22;24320;56.980;24.336;2024-02-21T13:24:12;2.80;99.90
28654;DHT22;24320;56.980;24.336;2024-02-21T13:26:40;2.70;99.90
28654;DHT22;24320;56.980;24.336;2024-02-21T13:29:08;2.90;99.90
28654;DHT22;24320;56.980;24.336;2024-02-21T13:31:35;2.70;99.90
28654;DHT22;24320;56.980;24.336;2024-02-21T13:34:02;2.70;99.90
28654;DHT22;24320;56.980;24.336;2024-02-21T13:36:30;2.80;99.90
28654;DHT22;24320;56.980;24.336;2024-02-21T13:38:57;2.80;99.90
28654;DHT22;24320;56.980;24.336;2024-02-21T13:41:24;2.80;99.90
28654;DHT22;24320;56.980;24.336;2024-02-21T13:43:51;2.80;99.90
28654;DHT22;24320;56.980;24.336;2024-02-21T13:46:20;2.80;99.90
28654;DHT22;24320;56.980;24.336;2024-02-21T13:48:49;2.80;99.90
28654;DHT22;24320;56.980;24.336;2024-02-21T13:51:16;2.80;99.90
28654;DHT22;24320;56.980;24.336;2024-02-21T13:53:43;2.80;99.90
28654;DHT22;24320;56.980;24.336;2024-02-21T13:56:10;2.80;99.90
28654;DHT22;24320;56.980;24.336;2024-02-21T13:58:39;2.70;99.90
28654;DHT22;24320;56.980;24.336;2024-02-21T14:01:06;2.80;99.90
28654;DHT22;24320;56.980;24.336;2024-02-21T14:03:33;2.80;99.90
28654;DHT22;24320;56.980;24.336;2024-02-21T14:06:03;2.70;99.90
28654;DHT22;24320;56.980;24.336;2024-02-21T14:08:30;2.70;99.90
28654;DHT22;24320;56.980;24.336;2024-02-21T14:10:58;2.70;99.90
28654;DHT22;24320;56.980;24.336;2024-02-21T14:13:28;2.70;99.90
28654;DHT22;24320;56.980;24.336;2024-02-21T14:15:56;2.70;99.90
28654;DHT22;24320;56.980;24.336;2024-02-21T14:18:24;2.60;99.90
28654;DHT22;24320;56.980;24.336;2024-02-21T14:20:54;2.50;99.90
28654;DHT22;24320;56.980;24.336;2024-02-21T14:23:21;2.50;99.90
28654;DHT22;24320;56.980;24.336;2024-02-21T14:25:49;2.50;99.90
28654;DHT22;24320;56.980;24.336;2024-02-21T14:28:18;2.40;99.90
28654;DHT22;24320;56.980;24.336;2024-02-21T14:30:47;2.50;99.90
28654;DHT22;24320;56.980;24.336;2024-02-21T14:33:16;2.40;99.90
28654;DHT22;24320;56.980;24.336;2024-02-21T14:35:43;2.40;99.90
28654;DHT22;24320;56.980;24.336;2024-02-21T14:38:10;2.40;99.90
28654;DHT22;24320;56.980;24.336;2024-02-21T14:40:37;2.40;99.90
28654;DHT22;24320;56.980;24.336;2024-02-21T14:43:04;2.40;99.90
28654;DHT22;24320;56.980;24.336;2024-02-21T14:45:31;2.40;99.90
28654;DHT22;24320;56.980;24.336;2024-02-21T14:47:58;2.40;99.90
28654;DHT22;24320;56.980;24.336;2024-02-21T14:50:25;2.40;99.90
28654;DHT22;24320;56.980;24.336;2024-02-21T14:52:52;2.40;99.90
28654;DHT22;24320;56.980;24.336;2024-02-21T14:55:19;2.40;99.90
28654;DHT22;24320;56.980;24.336;2024-02-21T14:57:46;2.40;99.90
28654;DHT22;24320;56.980;24.336;2024-02-21T15:00:14;2.40;99.90
28654;DHT22;24320;56.980;24.336;2024-02-21T15:02:41;2.40;99.90
28654;DHT22;24320;56.980;24.336;2024-02-21T15:05:09;2.50;99.90
28654;DHT22;24320;56.980;24.336;2024-02-21T15:07:38;2.30;99.90
28654;DHT22;24320;56.980;24.336;2024-02-21T15:10:05;2.30;99.90
28654;DHT22;24320;56.980;24.336;2024-02-21T15:12:33;2.20;99.90
28654;DHT22;24320;56.980;24.336;2024-02-21T15:15:00;2.20;99.90
28654;DHT22;24320;56.980;24.336;2024-02-21T15:17:27;2.20;99.90
28654;DHT22;24320;56.980;24.336;2024-02-21T15:19:54;2.20;99.90
28654;DHT22;24320;56.980;24.336;2024-02-21T15:22:22;2.20;99.90
28654;DHT22;24320;56.980;24.336;2024-02-21T15:24:50;2.10;99.90
28654;DHT22;24320;56.980;24.336;2024-02-21T15:27:18;2.20;99.90
28654;DHT22;24320;56.980;24.336;2024-02-21T15:29:44;2.20;99.90
28654;DHT22;24320;56.980;24.336;2024-02-21T15:32:11;2.10;99.90
28654;DHT22;24320;56.980;24.336;2024-02-21T15:34:39;2.00;99.90
28654;DHT22;24320;56.980;24.336;2024-02-21T15:37:06;2.00;99.90
28654;DHT22;24320;56.980;24.336;2024-02-21T15:39:33;2.00;99.90